^^
Datos históricos de la estación: Murcia-Puente Tocinos
Diario Informe para Julio 16, 2019 Unidades:  Ingés    Métrico   Ambas
Diario Semanal Mensual Anual
  Máxima: Mínima: Promedio:
Temperatura: 92.3 °F 72 °F 81 °F
Punto de rocio: 72.1 °F 60.8 °F 67.5 °F
Humedad: 84.2% 35.4% 66%
Velocidad viento: 13.5mph 0mph 5.4mph
Racha viento: 23.5mph - -
Viento- - ENE
Presión: 30 in 29.9 in -
Precipitación: 0 in    
 
 
Tabla de datos para Julio 16, 2019
Hora Temperatura Punto de rocio Presión Viento Velocidad viento Racha viento Humedad Intensidad lluvia(por hora) Nubes
00:04 77.5 °F 68.4 °F 30 in NE 3.6 mph 6.9 mph 73.3% 0 in
00:09 77.4 °F 68.5 °F 30 in NE 3.7 mph 7 mph 74% 0 in
00:14 77.4 °F 68.4 °F 30 in NE 4 mph 8.5 mph 74.1% 0 in
00:19 77.2 °F 68.5 °F 30 in NE 4.2 mph 9 mph 75% 0 in
00:24 76.8 °F 68.4 °F 30 in NE 4.7 mph 8 mph 75% 0 in
00:29 76.8 °F 68.5 °F 30 in NE 4.7 mph 8.5 mph 75.6% 0 in
00:34 76.8 °F 68.7 °F 30 in NE 4.7 mph 9 mph 76% 0 in
00:39 76.6 °F 68.5 °F 30 in NE 4.8 mph 9.2 mph 76% 0 in
00:44 76.6 °F 68.9 °F 30 in NE 5.2 mph 9.2 mph 77% 0 in
00:49 76.5 °F 68.7 °F 30 in NE 5.3 mph 9.2 mph 77% 0 in
00:54 76.5 °F 68.7 °F 30 in NE 5.4 mph 10.4 mph 77% 0 in
00:59 76.3 °F 68.5 °F 30 in NE 5.5 mph 10 mph 77% 0 in
01:04 76.3 °F 68.5 °F 30 in NE 5.9 mph 9.2 mph 77% 0 in
01:09 76.1 °F 68.7 °F 30 in NE 5.7 mph 9 mph 77.7% 0 in
01:14 75.9 °F 68.5 °F 30 in NE 5.2 mph 7.4 mph 78% 0 in
01:19 75.9 °F 68.5 °F 30 in NE 5.2 mph 7 mph 78% 0 in
01:24 75.9 °F 68.5 °F 30 in NE 5.2 mph 7 mph 78% 0 in
01:29 75.9 °F 68.5 °F 30 in NE 5 mph 8.1 mph 78% 0 in
01:34 75.9 °F 68.5 °F 30 in NE 4.3 mph 8.1 mph 78% 0 in
01:39 75.9 °F 68.5 °F 30 in NE 4.4 mph 8.1 mph 78% 0 in
01:44 75.7 °F 68.5 °F 30 in NE 4.7 mph 7.6 mph 78% 0 in
01:49 75.7 °F 68.4 °F 30 in NE 4.8 mph 8.1 mph 78% 0 in
01:54 75.7 °F 68.4 °F 30 in NE 5.2 mph 8.5 mph 78% 0 in
01:59 75.7 °F 68.4 °F 30 in NE 5.2 mph 9 mph 78% 0 in
02:04 75.7 °F 68.4 °F 30 in NE 5.2 mph 8.1 mph 78% 0 in
02:09 75.7 °F 68.4 °F 30 in NE 5.2 mph 8.5 mph 78% 0 in
02:14 75.7 °F 68.5 °F 30 in NE 5.2 mph 9 mph 78.3% 0 in
02:19 75.7 °F 68.4 °F 30 in NE 5.2 mph 9 mph 78.1% 0 in
02:24 75.7 °F 68.4 °F 30 in NE 5.4 mph 7 mph 78% 0 in
02:29 75.7 °F 68.7 °F 30 in NE 5.2 mph 8.1 mph 78.8% 0 in
02:34 75.6 °F 68.5 °F 30 in NE 4.7 mph 8 mph 79% 0 in
02:39 75.6 °F 68.5 °F 30 in NE 4.5 mph 6.2 mph 79% 0 in
02:44 75.6 °F 68.5 °F 30 in NE 4 mph 6.2 mph 79% 0 in
02:49 75.6 °F 68.5 °F 30 in NE 4.1 mph 6.9 mph 79% 0 in
02:54 75.4 °F 68.5 °F 30 in ENE 4.3 mph 7 mph 79% 0 in
02:59 75.4 °F 68.4 °F 30 in ENE 3.7 mph 5 mph 78.8% 0 in
03:04 75.4 °F 68.2 °F 30 in NE 2.4 mph 3.5 mph 78.3% 0 in
03:09 75.4 °F 68.4 °F 30 in NE 2.1 mph 4.6 mph 79% 0 in
03:14 75.2 °F 68.4 °F 30 in NE 1.4 mph 5 mph 79% 0 in
03:19 75 °F 68.2 °F 30 in NNE 1.6 mph 5 mph 79% 0 in
03:24 75 °F 68.2 °F 30 in North 2 mph 4.6 mph 79% 0 in
03:29 74.8 °F 68 °F 30 in NNE 2 mph 5 mph 79% 0 in
03:34 74.7 °F 67.8 °F 30 in NE 2 mph 4.6 mph 79.1% 0 in
03:39 74.7 °F 68.2 °F 30 in NNE 2 mph 5 mph 80% 0 in
03:44 74.5 °F 68 °F 30 in NNE 2 mph 3.5 mph 80% 0 in
03:49 74.5 °F 67.8 °F 30 in NNE 1.9 mph 3 mph 80% 0 in
03:54 74.5 °F 67.8 °F 30 in NNE 1.8 mph 2 mph 80% 0 in
03:59 74.5 °F 68 °F 30 in NE 1.7 mph 3.6 mph 80.6% 0 in
04:04 74.3 °F 68 °F 30 in NE 1.4 mph 5.2 mph 81% 0 in
04:09 74.1 °F 67.8 °F 30 in NE 1.9 mph 5.2 mph 81% 0 in
04:14 73.9 °F 68 °F 30 in NE 3.1 mph 5.2 mph 81.8% 0 in
04:19 73.8 °F 68 °F 30 in NE 3.2 mph 5.2 mph 82% 0 in
04:24 73.8 °F 67.8 °F 30 in NE 3.6 mph 5.2 mph 82% 0 in
04:29 73.6 °F 67.6 °F 30 in NE 3.5 mph 5 mph 82% 0 in
04:34 73.6 °F 67.6 °F 30 in NE 3.1 mph 5 mph 82% 0 in
04:39 73.2 °F 67.5 °F 30 in NE 3.1 mph 5 mph 82% 0 in
04:44 73.2 °F 67.5 °F 30 in NE 3.1 mph 5.2 mph 82% 0 in
04:49 73 °F 67.3 °F 30 in NE 3.1 mph 5 mph 82% 0 in
04:54 73 °F 67.3 °F 30 in ENE 3.1 mph 5.2 mph 82% 0 in
04:59 73 °F 67.1 °F 30 in NE 3 mph 5 mph 81.5% 0 in
05:04 72.9 °F 66.7 °F 30 in ENE 2.9 mph 5 mph 81% 0 in
05:09 72.9 °F 66.9 °F 30 in NNE 2.6 mph 4 mph 81.2% 0 in
05:14 73 °F 67.3 °F 30 in North 2 mph 4.6 mph 82% 0 in
05:19 73 °F 67.3 °F 30 in NNE 2.1 mph 5 mph 82% 0 in
05:24 72.9 °F 67.3 °F 30 in North 2.4 mph 5 mph 82.7% 0 in
05:29 72.9 °F 67.5 °F 30 in North 1.7 mph 3 mph 83% 0 in
05:34 72.9 °F 67.5 °F 30 in Calm   2.4 mph 83% 0 in
05:39 72.9 °F 67.5 °F 30 in NNO 0.4 mph 2.9 mph 83% 0 in
05:44 72.9 °F 66.9 °F 30 in North 1.4 mph 3.5 mph 81.8% 0 in
05:49 72.7 °F 66 °F 30 in North 1 mph 3 mph 79.7% 0 in
05:54 72.7 °F 65.5 °F 30 in Calm   3.6 mph 78.4% 0 in
05:59 72.7 °F 65.3 °F 30 in NE 0.4 mph 4 mph 78% 0 in
06:04 72.7 °F 65.3 °F 30 in NE 1.4 mph 3 mph 77.8% 0 in
06:09 72.7 °F 65.5 °F 30 in NE 1.1 mph 1.4 mph 78% 0 in
06:14 72.9 °F 66 °F 30 in Calm   2.4 mph 78.9% 0 in
06:19 72.9 °F 66.2 °F 30 in Calm   2 mph 79.9% 0 in
06:24 73 °F 66.7 °F 30 in Calm   2.9 mph 80.6% 0 in
06:29 73 °F 67.1 °F 30 in NNO 0.5 mph 3.5 mph 81.7% 0 in
06:34 73 °F 67.3 °F 30 in NO 1.8 mph 3.6 mph 82.4% 0 in
06:39 73 °F 67.6 °F 30 in NO 1.9 mph 4.6 mph 83% 0 in
06:44 72.9 °F 67.5 °F 30 in NO 2 mph 5 mph 83% 0 in
06:49 72.9 °F 67.6 °F 30 in NO 1.5 mph   83.7% 0 in
06:54 72.9 °F 67.6 °F 30 in Calm     84% 0 in
06:59 72.9 °F 67.5 °F 30 in Calm     83.7% 0 in
07:04 72.5 °F 66.6 °F 30 in Calm   4.6 mph 81.5% 0 in
07:09 72.1 °F 65.7 °F 30 in SE 0.4 mph 5 mph 80.2% 0 in
07:14 72 °F 65.5 °F 30 in SE 1.8 mph 5 mph 80% 0 in
07:19 72 °F 65.5 °F 30 in ESE 1.7 mph 3 mph 79.8% 0 in
07:24 72.1 °F 65.5 °F 30 in ESE 1.4 mph 3 mph 79.8% 0 in
07:29 72.1 °F 65.3 °F 30 in ESE 1 mph   79.1% 0 in
07:34 72.3 °F 65.1 °F 30 in Calm     78% 0 in
07:39 72.3 °F 65.3 °F 30 in Calm     78.2% 0 in
07:44 72.7 °F 65.8 °F 30 in Calm     79% 0 in
07:49 72.9 °F 65.8 °F 30 in Calm     78.7% 0 in
07:54 72.9 °F 65.8 °F 30 in Calm     78.6% 0 in
07:59 73 °F 66 °F 30 in Calm     79% 0 in
08:04 73.2 °F 66.2 °F 30 in Calm     78.7% 0 in
08:09 73.6 °F 66 °F 30 in Calm   3.6 mph 77.6% 0 in
08:14 73.8 °F 66.4 °F 30 in Calm   4 mph 77.7% 0 in
08:19 73.9 °F 66.6 °F 30 in NE 0.5 mph 3 mph 78% 0 in
08:24 74.1 °F 66.6 °F 30 in NE 1.8 mph 3 mph 77.1% 0 in
08:29 74.5 °F 65.8 °F 30 in Este 1.8 mph 3.5 mph 74.6% 0 in
08:34 74.7 °F 65.5 °F 30 in Este 1.8 mph 3.5 mph 73.5% 0 in
08:39 74.8 °F 65.7 °F 30 in ESE 1.7 mph 2 mph 73% 0 in
08:44 75 °F 65.8 °F 30 in ESE 1.4 mph   72.8% 0 in
08:49 75.4 °F 65.7 °F 30 in Oeste 1 mph   72% 0 in
08:54 75.7 °F 66 °F 30 in Calm     71.9% 0 in
08:59 76.1 °F 66.2 °F 30 in Calm     71.8% 0 in
09:04 76.5 °F 66.4 °F 30 in Calm     71% 0 in
09:09 76.8 °F 66.7 °F 30 in Calm     71% 0 in
09:14 77.4 °F 66.7 °F 30 in Calm     70% 0 in
09:19 77.5 °F 66.9 °F 30 in Calm     69.7% 0 in
09:24 77.9 °F 66.9 °F 30 in Calm     69% 0 in
09:29 77.7 °F 66.7 °F 30 in Calm     69% 0 in
09:34 77.7 °F 66.7 °F 30 in Calm     69% 0 in
09:39 77.9 °F 67.1 °F 30 in Calm     69.4% 0 in
09:44 78.1 °F 67.1 °F 30 in Calm     69% 0 in
09:49 78.4 °F 67.3 °F 30 in Calm     68.5% 0 in
09:54 78.6 °F 67.1 °F 30 in Calm     67.7% 0 in
09:59 79.2 °F 67.3 °F 30 in Calm     67% 0 in
10:04 79.5 °F 67.5 °F 30 in Calm     66.6% 0 in
10:09 80.1 °F 67.6 °F 30 in Calm   1.4 mph 65.7% 0 in
10:14 80.6 °F 67.6 °F 30 in Calm   5.9 mph 65% 0 in
10:19 80.6 °F 67.8 °F 30 in ESE 0.5 mph 6 mph 65% 0 in
10:24 80.8 °F 68.2 °F 30 in NE 1.8 mph 5 mph 65.7% 0 in
10:29 80.8 °F 68.4 °F 30 in North 2 mph 6.2 mph 66% 0 in
10:34 80.8 °F 68.7 °F 30 in North 2.4 mph 6.2 mph 66.7% 0 in
10:39 80.8 °F 68.5 °F 30 in NE 2.6 mph 6.9 mph 66.3% 0 in
10:44 81 °F 68.9 °F 30 in NNE 3.1 mph 7 mph 66.8% 0 in
10:49 80.4 °F 68.9 °F 30 in NE 3.5 mph 9.2 mph 68% 0 in
10:54 80.1 °F 69.1 °F 30 in NNE 4.7 mph 9 mph 69.2% 0 in
10:59 80.1 °F 68.9 °F 30 in NNE 4.9 mph 9.7 mph 68.7% 0 in
11:04 80.1 °F 68.7 °F 30 in NE 5.4 mph 10 mph 68.3% 0 in
11:09 80.4 °F 68.4 °F 30 in NNE 5.3 mph 9.2 mph 66.6% 0 in
11:14 81.1 °F 68.9 °F 30 in NE 5.2 mph 9 mph 66.6% 0 in
11:19 81.7 °F 68.4 °F 30 in NE 5 mph 9.2 mph 64.3% 0 in
11:24 81.7 °F 67.8 °F 30 in NNE 4.3 mph 10.4 mph 63% 0 in
11:29 81.9 °F 66.7 °F 30 in NNE 4.4 mph 10 mph 60.5% 0 in
11:34 81.9 °F 65.5 °F 30 in NNO 4.7 mph 9 mph 57.8% 0 in
11:39 82 °F 66.6 °F 30 in NNE 4.6 mph 10.4 mph 59.6% 0 in
11:44 82.2 °F 66.4 °F 30 in NE 4.3 mph 11.5 mph 58.8% 0 in
11:49 82.6 °F 66.2 °F 30 in NNE 4.5 mph 12 mph 57.9% 0 in
11:54 82.9 °F 66 °F 30 in North 5.2 mph 10.4 mph 57% 0 in
11:59 82.9 °F 66.2 °F 30 in North 4.9 mph 10 mph 56.8% 0 in
12:04 83.3 °F 66.6 °F 30 in NNE 4.3 mph 10.7 mph 57% 0 in
12:09 83.7 °F 66.6 °F 30 in NNE 4.8 mph 12.7 mph 56.7% 0 in
12:14 83.7 °F 66.9 °F 30 in NE 5.9 mph 13 mph 57.4% 0 in
12:19 83.7 °F 67.3 °F 30 in NNE 6 mph 12.7 mph 58% 0 in
12:24 83.8 °F 67.3 °F 30 in NE 6.4 mph 13 mph 57.5% 0 in
12:29 84 °F 67.3 °F 30 in NNE 6.1 mph 14 mph 57.4% 0 in
12:34 84.4 °F 67.3 °F 30 in NNE 5.2 mph 14 mph 56.4% 0 in
12:39 84.6 °F 67.1 °F 30 in NE 5.7 mph 14 mph 56% 0 in
12:44 85.1 °F 67.3 °F 30 in NNE 6.9 mph 13 mph 55.6% 0 in
12:49 85.6 °F 67.5 °F 30 in NNE 6.6 mph 12 mph 54.8% 0 in
12:54 85.8 °F 67.3 °F 30 in NNE 5.9 mph 12.7 mph 54.1% 0 in
12:59 85.8 °F 67.5 °F 30 in NNE 6.1 mph 13 mph 54% 0 in
13:04 86.2 °F 66.9 °F 30 in NE 6.4 mph 13 mph 53% 0 in
13:09 86.4 °F 66.9 °F 30 in NE 6.7 mph 13 mph 52.6% 0 in
13:14 86.5 °F 66.9 °F 30 in NNE 7.6 mph 15.2 mph 52.2% 0 in
13:19 86.4 °F 66.9 °F 30 in NNE 7.9 mph 16.1 mph 52.4% 0 in
13:24 86.5 °F 66.6 °F 30 in North 8.7 mph 16 mph 51.6% 0 in
13:29 87.3 °F 66.4 °F 30 in NNE 8.4 mph 13.8 mph 49.9% 0 in
13:34 87.4 °F 66.2 °F 30 in NNE 7.6 mph 14 mph 49.2% 0 in
13:39 87.8 °F 66.4 °F 30 in NE 7.8 mph 14.7 mph 49.3% 0 in
13:44 88.2 °F 66.6 °F 30 in NE 8.1 mph 15 mph 49% 0 in
13:49 88.2 °F 66.2 °F 30 in NE 8.1 mph 15.2 mph 48.1% 0 in
13:54 88.3 °F 66.6 °F 30 in ENE 8.1 mph 15 mph 48.4% 0 in
13:59 88.9 °F 66.7 °F 30 in NE 7.9 mph 13 mph 48% 0 in
14:04 89.1 °F 66.7 °F 30 in NE 7.4 mph 13 mph 48% 0 in
14:09 89.2 °F 66.9 °F 30 in NE 7.5 mph 13 mph 48% 0 in
14:14 89.4 °F 67.1 °F 30 in NE 7.6 mph 13 mph 48% 0 in
14:19 89.4 °F 67.1 °F 30 in NE 8.2 mph 22.3 mph 48% 0 in
14:24 89.1 °F 67.3 °F 30 in NNE 9.7 mph 22 mph 48.6% 0 in
14:29 89.1 °F 67.3 °F 30 in NE 10.1 mph 21 mph 48.7% 0 in
14:34 89.4 °F 67.3 °F 30 in NE 11.4 mph 18 mph 48.1% 0 in
14:39 90 °F 67.5 °F 30 in NE 10.8 mph 17.8 mph 47.8% 0 in
14:44 89.8 °F 67.3 °F 30 in NE 9.2 mph 20.7 mph 47.6% 0 in
14:49 89.4 °F 66.9 °F 30 in NE 10 mph 21 mph 47.6% 0 in
14:54 89.8 °F 67.5 °F 30 in NE 12.3 mph 20 mph 48% 0 in
14:59 90 °F 67.5 °F 30 in NE 11.9 mph 19.6 mph 47.9% 0 in
15:04 90 °F 67.5 °F 30 in NE 11.2 mph 20 mph 47.9% 0 in
15:09 89.8 °F 67.3 °F 30 in NE 11.5 mph 20.8 mph 47.6% 0 in
15:14 89.6 °F 66.9 °F 30 in NE 12.3 mph 21 mph 47.5% 0 in
15:19 90 °F 66.9 °F 30 in NE 11.9 mph 20.7 mph 46.9% 0 in
15:24 89.4 °F 66.4 °F 30 in NE 10.7 mph 21 mph 46.6% 0 in
15:29 89.1 °F 66.7 °F 30 in NE 11.4 mph 21 mph 47.8% 0 in
15:34 89.2 °F 66.9 °F 30 in NE 13.5 mph 20.8 mph 47.7% 0 in
15:39 89.4 °F 66.7 °F 30 in NE 13.2 mph 21 mph 47.3% 0 in
15:44 89.4 °F 66.6 °F 30 in NE 12.3 mph 20 mph 47.2% 0 in
15:49 89.2 °F 66.9 °F 30 in NE 12.3 mph 23.5 mph 47.8% 0 in
15:54 89.4 °F 66.9 °F 30 in NE 12.3 mph 23 mph 47.7% 0 in
15:59 89.8 °F 66.9 °F 30 in NE 12.2 mph 23 mph 46.9% 0 in
16:04 90 °F 66.6 °F 30 in NE 11.8 mph 20.7 mph 46.4% 0 in
16:09 90.3 °F 66.9 °F 30 in ENE 11.3 mph 21 mph 46.3% 0 in
16:14 91 °F 64 °F 30 in ESE 10 mph 13.8 mph 41.1% 0 in
16:19 91.4 °F 63 °F 30 in ENE 9 mph 14 mph 38.9% 0 in
16:24 91.9 °F 63.1 °F 29.9 in Este 6.4 mph 13 mph 38.4% 0 in
16:29 92.1 °F 62.2 °F 29.9 in ESE 6.5 mph 16.3 mph 37% 0 in
16:34 92.1 °F 60.8 °F 29.9 in ESE 6.9 mph 16 mph 35.4% 0 in
16:39 92.3 °F 61 °F 29.9 in SE 7.6 mph 19 mph 35.4% 0 in
16:44 91.9 °F 61.7 °F 29.9 in SE 9.2 mph 19 mph 36.6% 0 in
16:49 92.1 °F 61.3 °F 29.9 in SE 9.4 mph 18.4 mph 36.1% 0 in
16:54 91.9 °F 61 °F 29.9 in SE 10 mph 18 mph 35.7% 0 in
16:59 91.9 °F 61.5 °F 29.9 in SE 10.4 mph 17 mph 36.4% 0 in
17:04 91.8 °F 61.9 °F 29.9 in SE 11.2 mph 16.1 mph 37.2% 0 in
17:09 91.8 °F 62.4 °F 29.9 in SE 10.9 mph 17.5 mph 38% 0 in
17:14 91.8 °F 62.6 °F 29.9 in SE 10.2 mph 17 mph 38% 0 in
17:19 91.6 °F 62.8 °F 29.9 in SE 9.9 mph 19.6 mph 38.6% 0 in
17:24 91.6 °F 63.1 °F 29.9 in SE 9.2 mph 20 mph 39% 0 in
17:29 91.8 °F 63.1 °F 29.9 in SE 9.2 mph 18.4 mph 38.9% 0 in
17:34 91.2 °F 64 °F 29.9 in SE 9.2 mph 18.4 mph 40.5% 0 in
17:39 90.9 °F 64.8 °F 29.9 in SE 9.8 mph 18.5 mph 42.2% 0 in
17:44 90.7 °F 64.6 °F 29.9 in ESE 11.4 mph 20.7 mph 42.3% 0 in
17:49 90.7 °F 65.1 °F 29.9 in SE 11.1 mph 21 mph 43% 0 in
17:54 90.3 °F 65.3 °F 29.9 in ESE 10.2 mph 20.8 mph 43.7% 0 in
17:59 90 °F 65.7 °F 29.9 in ESE 10.6 mph 21 mph 44.8% 0 in
18:04 89.6 °F 65.5 °F 29.9 in ESE 11.4 mph 18 mph 45% 0 in
18:09 89.8 °F 66 °F 29.9 in ESE 11.1 mph 17 mph 45.5% 0 in
18:14 89.6 °F 66.2 °F 29.9 in ESE 10.2 mph 18.4 mph 46.2% 0 in
18:19 89.4 °F 66.2 °F 29.9 in ESE 10.2 mph 18 mph 46.4% 0 in
18:24 89.2 °F 66.4 °F 29.9 in ESE 10.2 mph 20.8 mph 47% 0 in
18:29 88.9 °F 66.6 °F 29.9 in ESE 10.1 mph 21 mph 47.7% 0 in
18:34 88.9 °F 67.1 °F 29.9 in ESE 10 mph 17 mph 48.7% 0 in
18:39 88.5 °F 67.3 °F 29.9 in ESE 10.1 mph 18.4 mph 49.5% 0 in
18:44 88.2 °F 67.3 °F 29.9 in ESE 10.2 mph 18 mph 50.1% 0 in
18:49 88.2 °F 67.3 °F 29.9 in ESE 10.1 mph 18 mph 50% 0 in
18:54 88.2 °F 67.1 °F 29.9 in ESE 10 mph 17.3 mph 50% 0 in
18:59 87.8 °F 66.9 °F 29.9 in Este 9.9 mph 17 mph 50% 0 in
19:04 87.6 °F 66.7 °F 29.9 in ESE 9.7 mph 18.5 mph 50% 0 in
19:09 87.4 °F 67.1 °F 29.9 in Este 9.8 mph 19 mph 50.7% 0 in
19:14 87.4 °F 67.1 °F 29.9 in ESE 10 mph 16.1 mph 51% 0 in
19:19 87.4 °F 67.1 °F 29.9 in ESE 10 mph 16.1 mph 51% 0 in
19:24 87.1 °F 66.9 °F 29.9 in Este 10 mph 17.5 mph 51.3% 0 in
19:29 86.9 °F 67.1 °F 29.9 in ESE 10 mph 17 mph 52% 0 in
19:34 86.9 °F 67.3 °F 29.9 in Este 10 mph 17.3 mph 52.2% 0 in
19:39 86.7 °F 67.5 °F 29.9 in Este 9.5 mph 17 mph 53% 0 in
19:44 86.4 °F 67.8 °F 29.9 in Este 8.1 mph 14.5 mph 54% 0 in
19:49 86.2 °F 68 °F 29.9 in ESE 8.2 mph 15 mph 54.9% 0 in
19:54 85.8 °F 67.8 °F 29.9 in Este 8.5 mph 14 mph 55% 0 in
19:59 85.8 °F 67.8 °F 29.9 in Este 8.1 mph 15 mph 55% 0 in
20:04 85.6 °F 68.2 °F 29.9 in Este 7.4 mph 16.3 mph 56.3% 0 in
20:09 85.3 °F 68.4 °F 29.9 in Este 7.7 mph 16 mph 57% 0 in
20:14 84.9 °F 68.5 °F 29.9 in Este 8.5 mph 16.1 mph 57.9% 0 in
20:19 84.7 °F 68.5 °F 29.9 in Este 8.5 mph 16.1 mph 58.4% 0 in
20:24 84.6 °F 68.7 °F 29.9 in ESE 8.5 mph 16.1 mph 59% 0 in
20:29 84.4 °F 69.1 °F 29.9 in Este 8.2 mph 16 mph 60% 0 in
20:34 84.2 °F 68.7 °F 29.9 in ESE 7.6 mph 13.8 mph 60% 0 in
20:39 84 °F 69.1 °F 29.9 in Este 7.3 mph 14 mph 60.9% 0 in
20:44 83.8 °F 69.3 °F 29.9 in NE 6.4 mph 12 mph 61.7% 0 in
20:49 83.5 °F 69.8 °F 29.9 in ENE 6.3 mph 13.8 mph 63.7% 0 in
20:54 82.9 °F 70 °F 29.9 in ENE 6.2 mph 14 mph 64.9% 0 in
20:59 82.8 °F 70 °F 29.9 in ENE 5.7 mph 9.2 mph 65.5% 0 in
21:04 82.6 °F 70.2 °F 29.9 in ENE 4.7 mph 9 mph 66% 0 in
21:09 82.2 °F 70 °F 29.9 in ENE 4.8 mph 14 mph 66.6% 0 in
21:14 82 °F 70.2 °F 29.9 in NE 5.2 mph 14 mph 67.5% 0 in
21:19 81.7 °F 70.2 °F 29.9 in ENE 5.8 mph 14 mph 68.1% 0 in
21:24 81.3 °F 70.2 °F 29.9 in NE 7.6 mph 13 mph 69% 0 in
21:29 81.3 °F 70.2 °F 29.9 in NE 7.3 mph 12 mph 69% 0 in
21:34 81.1 °F 70.2 °F 30 in NE 6.4 mph 12.7 mph 69.7% 0 in
21:39 80.8 °F 70.5 °F 30 in NE 6.7 mph 13 mph 70.8% 0 in
21:44 80.6 °F 70.5 °F 30 in NE 7.4 mph 13 mph 71.5% 0 in
21:49 80.4 °F 70.5 °F 30 in NE 7.5 mph 13 mph 72% 0 in
21:54 80.2 °F 70.9 °F 30 in NE 7.6 mph 13 mph 72.9% 0 in
21:59 80.2 °F 70.7 °F 30 in NE 7.5 mph 13 mph 73% 0 in
22:04 80.1 °F 70.9 °F 30 in ENE 7.4 mph 12 mph 73.8% 0 in
22:09 80.1 °F 70.9 °F 30 in NE 6.6 mph 9.7 mph 74.2% 0 in
22:14 79.9 °F 71.2 °F 30 in NE 4.7 mph 12.5 mph 75.1% 0 in
22:19 79.3 °F 71.2 °F 30 in NE 5.1 mph 13 mph 76.2% 0 in
22:24 79.3 °F 71.4 °F 30 in NE 6.2 mph 13 mph 77% 0 in
22:29 79.2 °F 71.4 °F 30 in NE 6.2 mph 12 mph 77.2% 0 in
22:34 79 °F 71.6 °F 30 in NE 6.2 mph 11.5 mph 78% 0 in
22:39 78.8 °F 71.6 °F 30 in NE 6.4 mph 12 mph 78.4% 0 in
22:44 78.6 °F 71.6 °F 30 in NE 6.9 mph 12 mph 79% 0 in
22:49 78.4 °F 71.8 °F 30 in NE 6.7 mph 11 mph 79.5% 0 in
22:54 78.4 °F 71.8 °F 30 in NE 6.2 mph 10 mph 80% 0 in
22:59 78.4 °F 71.8 °F 30 in NE 6.2 mph 10 mph 80% 0 in
23:04 78.3 °F 71.8 °F 30 in NE 6.2 mph 12.7 mph 80.8% 0 in
23:09 78.3 °F 71.8 °F 30 in NE 6.3 mph 13 mph 81% 0 in
23:14 78.1 °F 71.8 °F 30 in NE 6.4 mph 10 mph 81% 0 in
23:19 77.9 °F 72 °F 30 in NE 6.3 mph 10 mph 81.8% 0 in
23:24 77.9 °F 72 °F 30 in NE 6.2 mph 11.4 mph 82% 0 in
23:29 77.7 °F 71.8 °F 30 in NE 6.2 mph 12 mph 82.2% 0 in
23:34 77.7 °F 72.1 °F 30 in NE 6.2 mph 12 mph 83% 0 in
23:39 77.5 °F 72 °F 30 in NE 6 mph 9.2 mph 83% 0 in
23:44 77.5 °F 72 °F 30 in NE 5.4 mph 9.2 mph 83% 0 in
23:49 77.5 °F 72.1 °F 30 in NE 5.4 mph 10 mph 83.6% 0 in
23:54 77.4 °F 72.1 °F 30 in NE 5.4 mph 11.5 mph 84% 0 in
23:59 77.4 °F 72.1 °F 30 in NE 5.7 mph 12 mph 84.2% 0 in
Murcia-Puente Tocinos, España
Compliments of Weather Underground - 2.75 mb

La estación de MeteoMurcia.com, publica sus datos en los siguientes proyectos:

Weather Underground PWS IMURCIAP2 Meteoclimatic www.awekas.at

W3Counter
Web Analytics